sensor_id;sensor_type;location;lat;lon;timestamp;temperature;humidity
45549;DHT22;31270;48.328;10.096;2022-12-07T00:01:35;2.80;99.90
45549;DHT22;31270;48.328;10.096;2022-12-07T00:04:03;2.80;99.90
45549;DHT22;31270;48.328;10.096;2022-12-07T00:06:37;2.70;99.90
45549;DHT22;31270;48.328;10.096;2022-12-07T00:09:04;2.70;99.90
45549;DHT22;31270;48.328;10.096;2022-12-07T00:11:30;2.80;99.90
45549;DHT22;31270;48.328;10.096;2022-12-07T00:14:01;2.70;99.90
45549;DHT22;31270;48.328;10.096;2022-12-07T00:16:29;2.70;99.90
45549;DHT22;31270;48.328;10.096;2022-12-07T00:18:55;2.80;99.90
45549;DHT22;31270;48.328;10.096;2022-12-07T00:21:24;2.80;99.90
45549;DHT22;31270;48.328;10.096;2022-12-07T00:23:52;2.80;99.90
45549;DHT22;31270;48.328;10.096;2022-12-07T00:26:23;2.80;99.90
45549;DHT22;31270;48.328;10.096;2022-12-07T00:28:51;2.70;99.90
45549;DHT22;31270;48.328;10.096;2022-12-07T00:31:19;2.70;99.90
45549;DHT22;31270;48.328;10.096;2022-12-07T00:33:45;2.80;99.90
45549;DHT22;31270;48.328;10.096;2022-12-07T00:36:14;2.80;99.90
45549;DHT22;31270;48.328;10.096;2022-12-07T00:38:40;2.80;99.90
45549;DHT22;31270;48.328;10.096;2022-12-07T00:41:11;2.70;99.90
45549;DHT22;31270;48.328;10.096;2022-12-07T00:43:38;2.70;99.90
45549;DHT22;31270;48.328;10.096;2022-12-07T00:46:04;2.80;99.90
45549;DHT22;31270;48.328;10.096;2022-12-07T00:48:30;2.80;99.90
45549;DHT22;31270;48.328;10.096;2022-12-07T00:50:55;2.70;99.90
45549;DHT22;31270;48.328;10.096;2022-12-07T00:53:21;2.70;99.90
45549;DHT22;31270;48.328;10.096;2022-12-07T00:55:47;2.70;99.90
45549;DHT22;31270;48.328;10.096;2022-12-07T00:58:13;2.70;99.90
45549;DHT22;31270;48.328;10.096;2022-12-07T01:00:40;2.70;99.90
45549;DHT22;31270;48.328;10.096;2022-12-07T01:03:08;2.70;99.90
45549;DHT22;31270;48.328;10.096;2022-12-07T01:05:34;2.60;99.90
45549;DHT22;31270;48.328;10.096;2022-12-07T01:08:00;2.60;99.90
45549;DHT22;31270;48.328;10.096;2022-12-07T01:10:26;2.70;99.90
45549;DHT22;31270;48.328;10.096;2022-12-07T01:12:52;2.60;99.90
45549;DHT22;31270;48.328;10.096;2022-12-07T01:15:18;2.60;99.90
45549;DHT22;31270;48.328;10.096;2022-12-07T01:17:44;2.60;99.90
45549;DHT22;31270;48.328;10.096;2022-12-07T01:20:10;2.60;99.90
45549;DHT22;31270;48.328;10.096;2022-12-07T01:22:40;2.60;99.90
45549;DHT22;31270;48.328;10.096;2022-12-07T01:25:10;2.60;99.90
45549;DHT22;31270;48.328;10.096;2022-12-07T01:27:37;2.60;99.90
45549;DHT22;31270;48.328;10.096;2022-12-07T01:30:05;2.60;99.90
45549;DHT22;31270;48.328;10.096;2022-12-07T01:32:32;2.70;99.90
45549;DHT22;31270;48.328;10.096;2022-12-07T01:34:57;2.60;99.90
45549;DHT22;31270;48.328;10.096;2022-12-07T01:37:23;2.60;99.90
45549;DHT22;31270;48.328;10.096;2022-12-07T01:39:50;2.60;99.90
45549;DHT22;31270;48.328;10.096;2022-12-07T01:42:16;2.60;99.90
45549;DHT22;31270;48.328;10.096;2022-12-07T01:47:50;2.60;99.90
45549;DHT22;31270;48.328;10.096;2022-12-07T01:50:17;2.60;99.90
45549;DHT22;31270;48.328;10.096;2022-12-07T01:52:45;2.50;99.90
45549;DHT22;31270;48.328;10.096;2022-12-07T01:55:15;2.50;99.90
45549;DHT22;31270;48.328;10.096;2022-12-07T01:57:45;2.50;99.90
45549;DHT22;31270;48.328;10.096;2022-12-07T02:00:12;2.50;99.90
45549;DHT22;31270;48.328;10.096;2022-12-07T02:02:44;2.50;99.90
45549;DHT22;31270;48.328;10.096;2022-12-07T02:05:13;2.50;99.90
45549;DHT22;31270;48.328;10.096;2022-12-07T02:07:39;2.50;99.90
45549;DHT22;31270;48.328;10.096;2022-12-07T02:12:38;2.50;99.90
45549;DHT22;31270;48.328;10.096;2022-12-07T02:15:05;2.50;99.90
45549;DHT22;31270;48.328;10.096;2022-12-07T02:18:16;2.50;99.90
45549;DHT22;31270;48.328;10.096;2022-12-07T02:23:58;2.60;99.90
45549;DHT22;31270;48.328;10.096;2022-12-07T02:29:23;2.60;99.90
45549;DHT22;31270;48.328;10.096;2022-12-07T02:32:08;2.60;99.90
45549;DHT22;31270;48.328;10.096;2022-12-07T02:35:07;2.60;99.90
45549;DHT22;31270;48.328;10.096;2022-12-07T02:40:37;2.60;99.90
45549;DHT22;31270;48.328;10.096;2022-12-07T02:43:08;2.60;99.90
45549;DHT22;31270;48.328;10.096;2022-12-07T02:45:37;2.60;99.90
45549;DHT22;31270;48.328;10.096;2022-12-07T02:48:05;2.60;99.90
45549;DHT22;31270;48.328;10.096;2022-12-07T02:50:32;2.60;99.90
45549;DHT22;31270;48.328;10.096;2022-12-07T02:52:58;2.60;99.90
45549;DHT22;31270;48.328;10.096;2022-12-07T02:55:34;2.60;99.90
45549;DHT22;31270;48.328;10.096;2022-12-07T03:01:14;2.70;99.90
45549;DHT22;31270;48.328;10.096;2022-12-07T03:03:51;2.70;99.90
45549;DHT22;31270;48.328;10.096;2022-12-07T03:06:31;2.70;99.90
45549;DHT22;31270;48.328;10.096;2022-12-07T03:09:13;2.70;99.90
45549;DHT22;31270;48.328;10.096;2022-12-07T03:12:09;2.70;99.90
45549;DHT22;31270;48.328;10.096;2022-12-07T03:14:38;2.70;99.90
45549;DHT22;31270;48.328;10.096;2022-12-07T03:17:21;2.70;99.90
45549;DHT22;31270;48.328;10.096;2022-12-07T03:19:49;2.70;99.90
45549;DHT22;31270;48.328;10.096;2022-12-07T03:22:17;2.70;99.90
45549;DHT22;31270;48.328;10.096;2022-12-07T03:24:49;2.70;99.90
45549;DHT22;31270;48.328;10.096;2022-12-07T03:27:33;2.70;99.90
45549;DHT22;31270;48.328;10.096;2022-12-07T03:30:07;2.70;99.90
45549;DHT22;31270;48.328;10.096;2022-12-07T03:32:41;2.70;99.90
45549;DHT22;31270;48.328;10.096;2022-12-07T03:35:25;2.70;99.90
45549;DHT22;31270;48.328;10.096;2022-12-07T03:37:59;2.70;99.90
45549;DHT22;31270;48.328;10.096;2022-12-07T03:40:30;2.70;99.90
45549;DHT22;31270;48.328;10.096;2022-12-07T03:42:59;2.70;99.90
45549;DHT22;31270;48.328;10.096;2022-12-07T03:45:42;2.70;99.90
45549;DHT22;31270;48.328;10.096;2022-12-07T03:48:17;2.70;99.90
45549;DHT22;31270;48.328;10.096;2022-12-07T03:50:52;2.70;99.90
45549;DHT22;31270;48.328;10.096;2022-12-07T03:53:25;2.60;99.90
45549;DHT22;31270;48.328;10.096;2022-12-07T03:55:56;2.60;99.90
45549;DHT22;31270;48.328;10.096;2022-12-07T03:58:23;2.60;99.90
45549;DHT22;31270;48.328;10.096;2022-12-07T04:00:49;2.60;99.90
45549;DHT22;31270;48.328;10.096;2022-12-07T04:03:15;2.60;99.90
45549;DHT22;31270;48.328;10.096;2022-12-07T04:05:42;2.60;99.90
45549;DHT22;31270;48.328;10.096;2022-12-07T04:08:07;2.50;99.90
45549;DHT22;31270;48.328;10.096;2022-12-07T04:10:33;2.50;99.90
45549;DHT22;31270;48.328;10.096;2022-12-07T04:13:00;2.50;99.90
45549;DHT22;31270;48.328;10.096;2022-12-07T04:15:25;2.50;99.90
45549;DHT22;31270;48.328;10.096;2022-12-07T04:17:51;2.50;99.90
45549;DHT22;31270;48.328;10.096;2022-12-07T04:20:17;2.50;99.90
45549;DHT22;31270;48.328;10.096;2022-12-07T04:22:42;2.50;99.90
45549;DHT22;31270;48.328;10.096;2022-12-07T04:25:08;2.50;99.90
45549;DHT22;31270;48.328;10.096;2022-12-07T04:27:34;2.50;99.90
45549;DHT22;31270;48.328;10.096;2022-12-07T04:29:59;2.50;99.90
45549;DHT22;31270;48.328;10.096;2022-12-07T04:32:25;2.50;99.90
45549;DHT22;31270;48.328;10.096;2022-12-07T04:34:51;2.50;99.90
45549;DHT22;31270;48.328;10.096;2022-12-07T04:37:16;2.50;99.90
45549;DHT22;31270;48.328;10.096;2022-12-07T04:39:42;2.50;99.90
45549;DHT22;31270;48.328;10.096;2022-12-07T04:42:10;2.50;99.90
45549;DHT22;31270;48.328;10.096;2022-12-07T04:44:36;2.50;99.90
45549;DHT22;31270;48.328;10.096;2022-12-07T04:47:01;2.40;99.90
45549;DHT22;31270;48.328;10.096;2022-12-07T04:49:27;2.40;99.90
45549;DHT22;31270;48.328;10.096;2022-12-07T04:51:53;2.40;99.90
45549;DHT22;31270;48.328;10.096;2022-12-07T04:54:19;2.40;99.90
45549;DHT22;31270;48.328;10.096;2022-12-07T04:56:44;2.40;99.90
45549;DHT22;31270;48.328;10.096;2022-12-07T04:59:11;2.40;99.90
45549;DHT22;31270;48.328;10.096;2022-12-07T05:01:37;2.40;99.90
45549;DHT22;31270;48.328;10.096;2022-12-07T05:04:03;2.50;99.90
45549;DHT22;31270;48.328;10.096;2022-12-07T05:06:29;2.50;99.90
45549;DHT22;31270;48.328;10.096;2022-12-07T05:08:55;2.40;99.90
45549;DHT22;31270;48.328;10.096;2022-12-07T05:11:20;2.50;99.90
45549;DHT22;31270;48.328;10.096;2022-12-07T05:14:14;2.50;99.90
45549;DHT22;31270;48.328;10.096;2022-12-07T05:16:41;2.50;99.90
45549;DHT22;31270;48.328;10.096;2022-12-07T05:19:07;2.50;99.90
45549;DHT22;31270;48.328;10.096;2022-12-07T05:21:33;2.50;99.90
45549;DHT22;31270;48.328;10.096;2022-12-07T05:23:59;2.50;99.90
45549;DHT22;31270;48.328;10.096;2022-12-07T05:26:24;2.40;99.90
45549;DHT22;31270;48.328;10.096;2022-12-07T05:28:52;2.40;99.90
45549;DHT22;31270;48.328;10.096;2022-12-07T05:31:18;2.40;99.90
45549;DHT22;31270;48.328;10.096;2022-12-07T05:33:43;2.40;99.90
45549;DHT22;31270;48.328;10.096;2022-12-07T05:36:09;2.40;99.90
45549;DHT22;31270;48.328;10.096;2022-12-07T05:38:34;2.40;99.90
45549;DHT22;31270;48.328;10.096;2022-12-07T05:41:05;2.40;99.90
45549;DHT22;31270;48.328;10.096;2022-12-07T05:43:31;2.30;99.90
45549;DHT22;31270;48.328;10.096;2022-12-07T05:45:57;2.20;99.90
45549;DHT22;31270;48.328;10.096;2022-12-07T05:48:23;2.20;99.90
45549;DHT22;31270;48.328;10.096;2022-12-07T05:50:49;2.20;99.90
45549;DHT22;31270;48.328;10.096;2022-12-07T05:53:16;2.20;99.90
45549;DHT22;31270;48.328;10.096;2022-12-07T05:55:42;2.20;99.90
45549;DHT22;31270;48.328;10.096;2022-12-07T05:58:07;2.20;99.90
45549;DHT22;31270;48.328;10.096;2022-12-07T06:00:57;2.20;99.90
45549;DHT22;31270;48.328;10.096;2022-12-07T06:03:22;2.20;99.90
45549;DHT22;31270;48.328;10.096;2022-12-07T06:05:48;2.20;99.90
45549;DHT22;31270;48.328;10.096;2022-12-07T06:08:14;2.20;99.90
45549;DHT22;31270;48.328;10.096;2022-12-07T06:10:40;2.20;99.90
45549;DHT22;31270;48.328;10.096;2022-12-07T06:13:07;2.20;99.90
45549;DHT22;31270;48.328;10.096;2022-12-07T06:15:35;2.20;99.90
45549;DHT22;31270;48.328;10.096;2022-12-07T06:18:01;2.20;99.90
45549;DHT22;31270;48.328;10.096;2022-12-07T06:20:27;2.20;99.90
45549;DHT22;31270;48.328;10.096;2022-12-07T06:22:52;2.10;99.90
45549;DHT22;31270;48.328;10.096;2022-12-07T06:25:18;2.20;99.90
45549;DHT22;31270;48.328;10.096;2022-12-07T06:27:43;2.20;99.90
45549;DHT22;31270;48.328;10.096;2022-12-07T06:30:09;2.10;99.90
45549;DHT22;31270;48.328;10.096;2022-12-07T06:32:36;2.10;99.90
45549;DHT22;31270;48.328;10.096;2022-12-07T06:35:02;2.10;99.90
45549;DHT22;31270;48.328;10.096;2022-12-07T06:37:29;2.00;99.90
45549;DHT22;31270;48.328;10.096;2022-12-07T06:39:55;2.00;99.90
45549;DHT22;31270;48.328;10.096;2022-12-07T06:42:21;2.00;99.90
45549;DHT22;31270;48.328;10.096;2022-12-07T06:44:47;2.00;99.90
45549;DHT22;31270;48.328;10.096;2022-12-07T06:47:12;2.00;99.90
45549;DHT22;31270;48.328;10.096;2022-12-07T06:49:38;1.90;99.90
45549;DHT22;31270;48.328;10.096;2022-12-07T06:52:03;1.90;99.90
45549;DHT22;31270;48.328;10.096;2022-12-07T06:54:31;1.80;99.90
45549;DHT22;31270;48.328;10.096;2022-12-07T06:56:56;1.70;99.90
45549;DHT22;31270;48.328;10.096;2022-12-07T06:59:22;1.70;99.90
45549;DHT22;31270;48.328;10.096;2022-12-07T07:01:48;1.60;99.90
45549;DHT22;31270;48.328;10.096;2022-12-07T07:04:14;1.60;99.90
45549;DHT22;31270;48.328;10.096;2022-12-07T07:06:39;1.60;99.90
45549;DHT22;31270;48.328;10.096;2022-12-07T07:09:05;1.50;99.90
45549;DHT22;31270;48.328;10.096;2022-12-07T07:11:30;1.50;99.90
45549;DHT22;31270;48.328;10.096;2022-12-07T07:13:56;1.40;99.90
45549;DHT22;31270;48.328;10.096;2022-12-07T07:16:24;1.40;99.90
45549;DHT22;31270;48.328;10.096;2022-12-07T07:18:50;1.60;99.90
45549;DHT22;31270;48.328;10.096;2022-12-07T07:21:15;1.40;99.90
45549;DHT22;31270;48.328;10.096;2022-12-07T07:23:41;1.40;99.90
45549;DHT22;31270;48.328;10.096;2022-12-07T07:26:07;1.40;99.90
45549;DHT22;31270;48.328;10.096;2022-12-07T07:28:32;1.40;99.90
45549;DHT22;31270;48.328;10.096;2022-12-07T07:30:58;1.40;99.90
45549;DHT22;31270;48.328;10.096;2022-12-07T07:33:24;1.40;99.90
45549;DHT22;31270;48.328;10.096;2022-12-07T07:35:49;1.30;99.90
45549;DHT22;31270;48.328;10.096;2022-12-07T07:38:15;1.30;99.90
45549;DHT22;31270;48.328;10.096;2022-12-07T07:40:40;1.40;99.90
45549;DHT22;31270;48.328;10.096;2022-12-07T07:43:06;1.40;99.90
45549;DHT22;31270;48.328;10.096;2022-12-07T07:45:32;1.40;99.90
45549;DHT22;31270;48.328;10.096;2022-12-07T07:47:57;1.40;99.90
45549;DHT22;31270;48.328;10.096;2022-12-07T07:50:23;1.40;99.90
45549;DHT22;31270;48.328;10.096;2022-12-07T07:52:49;1.40;99.90
45549;DHT22;31270;48.328;10.096;2022-12-07T07:55:14;1.40;99.90
45549;DHT22;31270;48.328;10.096;2022-12-07T07:57:40;1.40;99.90
45549;DHT22;31270;48.328;10.096;2022-12-07T08:00:12;1.40;99.90
45549;DHT22;31270;48.328;10.096;2022-12-07T08:02:39;1.30;99.90
45549;DHT22;31270;48.328;10.096;2022-12-07T08:05:05;1.30;99.90
45549;DHT22;31270;48.328;10.096;2022-12-07T08:07:31;1.30;99.90
45549;DHT22;31270;48.328;10.096;2022-12-07T08:09:56;1.30;99.90
45549;DHT22;31270;48.328;10.096;2022-12-07T08:12:22;1.30;99.90
45549;DHT22;31270;48.328;10.096;2022-12-07T08:14:47;1.30;99.90
45549;DHT22;31270;48.328;10.096;2022-12-07T08:17:13;1.30;99.90
45549;DHT22;31270;48.328;10.096;2022-12-07T08:19:39;1.30;99.90
45549;DHT22;31270;48.328;10.096;2022-12-07T08:22:04;1.30;99.90
45549;DHT22;31270;48.328;10.096;2022-12-07T08:24:32;1.40;99.90
45549;DHT22;31270;48.328;10.096;2022-12-07T08:26:58;1.50;99.90
45549;DHT22;31270;48.328;10.096;2022-12-07T08:29:24;1.60;99.90
45549;DHT22;31270;48.328;10.096;2022-12-07T08:31:49;1.60;99.90
45549;DHT22;31270;48.328;10.096;2022-12-07T08:34:15;1.70;99.90
45549;DHT22;31270;48.328;10.096;2022-12-07T08:36:41;1.80;99.90
45549;DHT22;31270;48.328;10.096;2022-12-07T08:39:07;1.90;99.90
45549;DHT22;31270;48.328;10.096;2022-12-07T08:41:32;2.10;99.90
45549;DHT22;31270;48.328;10.096;2022-12-07T08:43:58;2.10;99.90
45549;DHT22;31270;48.328;10.096;2022-12-07T08:46:28;2.30;99.90
45549;DHT22;31270;48.328;10.096;2022-12-07T08:49:03;2.30;99.90
45549;DHT22;31270;48.328;10.096;2022-12-07T08:51:30;2.40;99.90
45549;DHT22;31270;48.328;10.096;2022-12-07T08:53:58;2.60;99.90
45549;DHT22;31270;48.328;10.096;2022-12-07T08:56:25;2.70;99.90
45549;DHT22;31270;48.328;10.096;2022-12-07T08:58:52;2.80;99.90
45549;DHT22;31270;48.328;10.096;2022-12-07T09:01:18;2.90;99.90
45549;DHT22;31270;48.328;10.096;2022-12-07T09:03:43;3.10;99.90
45549;DHT22;31270;48.328;10.096;2022-12-07T09:06:09;3.20;99.90
45549;DHT22;31270;48.328;10.096;2022-12-07T09:08:39;3.30;99.90
45549;DHT22;31270;48.328;10.096;2022-12-07T09:11:06;3.50;99.90
45549;DHT22;31270;48.328;10.096;2022-12-07T09:13:31;3.60;99.90
45549;DHT22;31270;48.328;10.096;2022-12-07T09:15:57;3.60;99.90
45549;DHT22;31270;48.328;10.096;2022-12-07T09:18:23;3.80;99.90
45549;DHT22;31270;48.328;10.096;2022-12-07T09:20:50;4.00;99.90
45549;DHT22;31270;48.328;10.096;2022-12-07T09:23:16;3.90;99.90
45549;DHT22;31270;48.328;10.096;2022-12-07T09:25:42;3.90;99.90
45549;DHT22;31270;48.328;10.096;2022-12-07T09:28:07;3.90;99.90
45549;DHT22;31270;48.328;10.096;2022-12-07T09:30:34;3.90;99.90
45549;DHT22;31270;48.328;10.096;2022-12-07T09:32:59;4.00;99.90
45549;DHT22;31270;48.328;10.096;2022-12-07T09:35:26;4.00;99.90
45549;DHT22;31270;48.328;10.096;2022-12-07T09:37:51;4.10;99.90
45549;DHT22;31270;48.328;10.096;2022-12-07T09:40:20;4.10;99.90
45549;DHT22;31270;48.328;10.096;2022-12-07T09:42:49;4.20;99.90
45549;DHT22;31270;48.328;10.096;2022-12-07T09:45:24;4.20;99.90
45549;DHT22;31270;48.328;10.096;2022-12-07T09:47:51;4.20;99.90
45549;DHT22;31270;48.328;10.096;2022-12-07T09:50:24;4.30;99.90
45549;DHT22;31270;48.328;10.096;2022-12-07T09:53:19;4.30;99.90
45549;DHT22;31270;48.328;10.096;2022-12-07T09:55:46;4.30;99.90
45549;DHT22;31270;48.328;10.096;2022-12-07T09:58:22;4.30;99.90
45549;DHT22;31270;48.328;10.096;2022-12-07T10:00:51;4.40;99.90
45549;DHT22;31270;48.328;10.096;2022-12-07T10:03:18;4.40;99.90
45549;DHT22;31270;48.328;10.096;2022-12-07T10:05:48;4.30;99.90
45549;DHT22;31270;48.328;10.096;2022-12-07T10:08:14;4.30;99.90
45549;DHT22;31270;48.328;10.096;2022-12-07T10:10:44;4.30;99.90
45549;DHT22;31270;48.328;10.096;2022-12-07T10:13:13;4.30;99.90
45549;DHT22;31270;48.328;10.096;2022-12-07T10:15:50;4.40;99.90
45549;DHT22;31270;48.328;10.096;2022-12-07T10:21:16;4.60;99.90
45549;DHT22;31270;48.328;10.096;2022-12-07T10:24:32;4.70;99.90
45549;DHT22;31270;48.328;10.096;2022-12-07T10:26:52;4.80;99.90
45549;DHT22;31270;48.328;10.096;2022-12-07T10:29:50;4.80;99.90
45549;DHT22;31270;48.328;10.096;2022-12-07T10:34:42;4.80;99.90
45549;DHT22;31270;48.328;10.096;2022-12-07T10:37:17;4.90;99.90
45549;DHT22;31270;48.328;10.096;2022-12-07T10:39:52;5.00;99.90
45549;DHT22;31270;48.328;10.096;2022-12-07T10:42:27;5.00;99.90
45549;DHT22;31270;48.328;10.096;2022-12-07T10:48:10;5.00;99.90
45549;DHT22;31270;48.328;10.096;2022-12-07T10:51:05;5.20;99.90
45549;DHT22;31270;48.328;10.096;2022-12-07T10:56:30;5.30;99.90
45549;DHT22;31270;48.328;10.096;2022-12-07T10:59:20;5.30;99.90
45549;DHT22;31270;48.328;10.096;2022-12-07T11:05:04;5.30;99.90
45549;DHT22;31270;48.328;10.096;2022-12-07T11:10:34;5.50;99.90
45549;DHT22;31270;48.328;10.096;2022-12-07T11:13:25;5.60;99.90
45549;DHT22;31270;48.328;10.096;2022-12-07T11:18:32;5.70;99.90
45549;DHT22;31270;48.328;10.096;2022-12-07T11:27:09;5.90;99.90
45549;DHT22;31270;48.328;10.096;2022-12-07T11:32:47;6.00;99.90
45549;DHT22;31270;48.328;10.096;2022-12-07T11:38:18;6.20;99.90
45549;DHT22;31270;48.328;10.096;2022-12-07T11:40:48;6.30;99.90
45549;DHT22;31270;48.328;10.096;2022-12-07T11:43:21;6.30;99.90
45549;DHT22;31270;48.328;10.096;2022-12-07T11:46:35;6.40;99.90
45549;DHT22;31270;48.328;10.096;2022-12-07T11:51:26;6.20;99.90
45549;DHT22;31270;48.328;10.096;2022-12-07T11:54:11;6.30;99.90
45549;DHT22;31270;48.328;10.096;2022-12-07T11:56:37;6.30;99.90
45549;DHT22;31270;48.328;10.096;2022-12-07T12:04:14;6.20;99.90
45549;DHT22;31270;48.328;10.096;2022-12-07T12:06:46;6.30;99.90
45549;DHT22;31270;48.328;10.096;2022-12-07T12:15:08;6.70;99.90
45549;DHT22;31270;48.328;10.096;2022-12-07T12:17:50;6.80;99.90
45549;DHT22;31270;48.328;10.096;2022-12-07T12:20:58;7.00;99.90
45549;DHT22;31270;48.328;10.096;2022-12-07T12:23:48;6.80;99.90
45549;DHT22;31270;48.328;10.096;2022-12-07T12:26:21;6.80;99.90
45549;DHT22;31270;48.328;10.096;2022-12-07T12:28:55;6.70;99.90
45549;DHT22;31270;48.328;10.096;2022-12-07T12:33:53;6.70;99.90
45549;DHT22;31270;48.328;10.096;2022-12-07T12:59:32;6.50;99.90
45549;DHT22;31270;48.328;10.096;2022-12-07T13:15:37;6.20;99.90
45549;DHT22;31270;48.328;10.096;2022-12-07T13:18:25;6.20;99.90
45549;DHT22;31270;48.328;10.096;2022-12-07T13:26:27;6.10;99.90
45549;DHT22;31270;48.328;10.096;2022-12-07T13:31:42;6.00;99.90
45549;DHT22;31270;48.328;10.096;2022-12-07T13:34:29;5.90;99.90
45549;DHT22;31270;48.328;10.096;2022-12-07T13:36:55;6.00;99.90
45549;DHT22;31270;48.328;10.096;2022-12-07T13:39:23;6.00;99.90
45549;DHT22;31270;48.328;10.096;2022-12-07T13:41:58;6.00;99.90
45549;DHT22;31270;48.328;10.096;2022-12-07T13:44:27;6.00;99.90
45549;DHT22;31270;48.328;10.096;2022-12-07T13:47:05;5.90;99.90
45549;DHT22;31270;48.328;10.096;2022-12-07T13:49:37;5.90;99.90
45549;DHT22;31270;48.328;10.096;2022-12-07T13:52:18;6.00;99.90
45549;DHT22;31270;48.328;10.096;2022-12-07T13:54:58;6.00;99.90
45549;DHT22;31270;48.328;10.096;2022-12-07T13:57:25;6.00;99.90
45549;DHT22;31270;48.328;10.096;2022-12-07T13:59:52;5.90;99.90
45549;DHT22;31270;48.328;10.096;2022-12-07T14:02:27;5.80;99.90
45549;DHT22;31270;48.328;10.096;2022-12-07T14:05:25;5.80;99.90
45549;DHT22;31270;48.328;10.096;2022-12-07T14:07:58;5.60;99.90
45549;DHT22;31270;48.328;10.096;2022-12-07T14:10:33;5.60;99.90
45549;DHT22;31270;48.328;10.096;2022-12-07T14:13:00;5.50;99.90
45549;DHT22;31270;48.328;10.096;2022-12-07T14:15:32;5.70;99.90
45549;DHT22;31270;48.328;10.096;2022-12-07T14:17:59;5.40;99.90
45549;DHT22;31270;48.328;10.096;2022-12-07T14:20:35;5.40;99.90
45549;DHT22;31270;48.328;10.096;2022-12-07T14:23:02;5.50;99.90
45549;DHT22;31270;48.328;10.096;2022-12-07T14:25:48;5.50;99.90
45549;DHT22;31270;48.328;10.096;2022-12-07T14:28:32;5.30;99.90
45549;DHT22;31270;48.328;10.096;2022-12-07T14:30:59;5.20;99.90
45549;DHT22;31270;48.328;10.096;2022-12-07T14:33:26;5.10;99.90
45549;DHT22;31270;48.328;10.096;2022-12-07T14:35:52;5.10;99.90
45549;DHT22;31270;48.328;10.096;2022-12-07T14:38:21;5.10;99.90
45549;DHT22;31270;48.328;10.096;2022-12-07T14:40:48;5.10;99.90
45549;DHT22;31270;48.328;10.096;2022-12-07T14:43:16;5.10;99.90
45549;DHT22;31270;48.328;10.096;2022-12-07T14:45:42;5.10;99.90
45549;DHT22;31270;48.328;10.096;2022-12-07T14:48:13;5.00;99.90
45549;DHT22;31270;48.328;10.096;2022-12-07T14:50:43;5.00;99.90
45549;DHT22;31270;48.328;10.096;2022-12-07T14:53:14;5.00;99.90
45549;DHT22;31270;48.328;10.096;2022-12-07T14:55:39;4.90;99.90
45549;DHT22;31270;48.328;10.096;2022-12-07T14:58:05;4.80;99.90
45549;DHT22;31270;48.328;10.096;2022-12-07T15:00:31;4.80;99.90
45549;DHT22;31270;48.328;10.096;2022-12-07T15:02:57;4.70;99.90
45549;DHT22;31270;48.328;10.096;2022-12-07T15:05:23;4.60;99.90
45549;DHT22;31270;48.328;10.096;2022-12-07T15:07:49;4.60;99.90
45549;DHT22;31270;48.328;10.096;2022-12-07T15:10:18;4.60;99.90
45549;DHT22;31270;48.328;10.096;2022-12-07T15:12:44;4.60;99.90
45549;DHT22;31270;48.328;10.096;2022-12-07T15:15:10;4.50;99.90
45549;DHT22;31270;48.328;10.096;2022-12-07T15:17:36;4.50;99.90
45549;DHT22;31270;48.328;10.096;2022-12-07T15:20:02;4.40;99.90
45549;DHT22;31270;48.328;10.096;2022-12-07T15:22:28;4.40;99.90
45549;DHT22;31270;48.328;10.096;2022-12-07T15:24:57;4.30;99.90
45549;DHT22;31270;48.328;10.096;2022-12-07T15:27:23;4.20;99.90
45549;DHT22;31270;48.328;10.096;2022-12-07T15:29:49;4.10;99.90
45549;DHT22;31270;48.328;10.096;2022-12-07T15:32:14;4.00;99.90
45549;DHT22;31270;48.328;10.096;2022-12-07T15:34:40;4.00;99.90
45549;DHT22;31270;48.328;10.096;2022-12-07T15:37:07;3.90;99.90
45549;DHT22;31270;48.328;10.096;2022-12-07T15:39:33;3.90;99.90
45549;DHT22;31270;48.328;10.096;2022-12-07T15:41:58;3.90;99.90
45549;DHT22;31270;48.328;10.096;2022-12-07T15:44:24;3.80;99.90
45549;DHT22;31270;48.328;10.096;2022-12-07T15:47:08;3.90;99.90
45549;DHT22;31270;48.328;10.096;2022-12-07T15:49:34;3.70;99.90
45549;DHT22;31270;48.328;10.096;2022-12-07T15:51:59;3.60;99.90
45549;DHT22;31270;48.328;10.096;2022-12-07T15:54:27;3.60;99.90
45549;DHT22;31270;48.328;10.096;2022-12-07T15:56:54;3.60;99.90
45549;DHT22;31270;48.328;10.096;2022-12-07T15:59:20;3.50;99.90
45549;DHT22;31270;48.328;10.096;2022-12-07T16:01:45;3.50;99.90
45549;DHT22;31270;48.328;10.096;2022-12-07T16:04:11;3.40;99.90
45549;DHT22;31270;48.328;10.096;2022-12-07T16:06:37;3.40;99.90
45549;DHT22;31270;48.328;10.096;2022-12-07T16:09:04;3.30;99.90
45549;DHT22;31270;48.328;10.096;2022-12-07T16:11:30;3.20;99.90
45549;DHT22;31270;48.328;10.096;2022-12-07T16:13:55;3.20;99.90
45549;DHT22;31270;48.328;10.096;2022-12-07T16:16:21;3.10;99.90
45549;DHT22;31270;48.328;10.096;2022-12-07T16:18:48;3.10;99.90
45549;DHT22;31270;48.328;10.096;2022-12-07T16:21:15;3.00;99.90
45549;DHT22;31270;48.328;10.096;2022-12-07T16:23:41;2.90;99.90
45549;DHT22;31270;48.328;10.096;2022-12-07T16:26:10;2.90;99.90
45549;DHT22;31270;48.328;10.096;2022-12-07T16:28:35;2.80;99.90
45549;DHT22;31270;48.328;10.096;2022-12-07T16:31:10;2.70;99.90
45549;DHT22;31270;48.328;10.096;2022-12-07T16:33:36;2.70;99.90
45549;DHT22;31270;48.328;10.096;2022-12-07T16:36:04;2.60;99.90
45549;DHT22;31270;48.328;10.096;2022-12-07T16:38:30;2.50;99.90
45549;DHT22;31270;48.328;10.096;2022-12-07T16:40:55;2.40;99.90
45549;DHT22;31270;48.328;10.096;2022-12-07T16:43:21;2.40;99.90
45549;DHT22;31270;48.328;10.096;2022-12-07T16:45:47;2.30;99.90
45549;DHT22;31270;48.328;10.096;2022-12-07T16:48:16;2.20;99.90
45549;DHT22;31270;48.328;10.096;2022-12-07T16:50:43;2.20;99.90
45549;DHT22;31270;48.328;10.096;2022-12-07T16:53:10;2.10;99.90
45549;DHT22;31270;48.328;10.096;2022-12-07T16:55:40;2.10;99.90
45549;DHT22;31270;48.328;10.096;2022-12-07T16:58:06;2.00;99.90
45549;DHT22;31270;48.328;10.096;2022-12-07T17:00:32;2.00;99.90
45549;DHT22;31270;48.328;10.096;2022-12-07T17:02:58;1.90;99.90
45549;DHT22;31270;48.328;10.096;2022-12-07T17:05:24;1.90;99.90
45549;DHT22;31270;48.328;10.096;2022-12-07T17:07:52;1.80;99.90
45549;DHT22;31270;48.328;10.096;2022-12-07T17:10:17;1.80;99.90
45549;DHT22;31270;48.328;10.096;2022-12-07T17:12:43;1.80;99.90
45549;DHT22;31270;48.328;10.096;2022-12-07T17:15:09;1.80;99.90
45549;DHT22;31270;48.328;10.096;2022-12-07T17:17:42;1.70;99.90
45549;DHT22;31270;48.328;10.096;2022-12-07T17:20:08;1.70;99.90
45549;DHT22;31270;48.328;10.096;2022-12-07T17:22:35;1.60;99.90
45549;DHT22;31270;48.328;10.096;2022-12-07T17:25:00;1.60;99.90
45549;DHT22;31270;48.328;10.096;2022-12-07T17:27:26;1.60;99.90
45549;DHT22;31270;48.328;10.096;2022-12-07T17:29:52;1.60;99.90
45549;DHT22;31270;48.328;10.096;2022-12-07T17:32:17;1.60;99.90
45549;DHT22;31270;48.328;10.096;2022-12-07T17:34:43;1.50;99.90